sensor_id;sensor_type;location;lat;lon;timestamp;P1;durP1;ratioP1;P2;durP2;ratioP2
27847;SDS011;15212;48.830;8.730;2022-08-21T00:00:11;6.17;;;2.17;;
27847;SDS011;15212;48.830;8.730;2022-08-21T00:02:46;5.87;;;2.17;;
27847;SDS011;15212;48.830;8.730;2022-08-21T00:05:18;5.03;;;2.50;;
27847;SDS011;15212;48.830;8.730;2022-08-21T00:07:47;5.22;;;2.25;;
27847;SDS011;15212;48.830;8.730;2022-08-21T00:10:16;7.20;;;2.35;;
27847;SDS011;15212;48.830;8.730;2022-08-21T00:12:46;7.30;;;2.30;;
27847;SDS011;15212;48.830;8.730;2022-08-21T00:15:16;8.30;;;2.70;;
27847;SDS011;15212;48.830;8.730;2022-08-21T00:17:48;7.72;;;2.70;;
27847;SDS011;15212;48.830;8.730;2022-08-21T00:20:16;9.73;;;2.72;;
27847;SDS011;15212;48.830;8.730;2022-08-21T00:22:45;5.17;;;2.52;;
27847;SDS011;15212;48.830;8.730;2022-08-21T00:25:15;7.85;;;2.67;;
27847;SDS011;15212;48.830;8.730;2022-08-21T00:27:45;6.67;;;2.27;;
27847;SDS011;15212;48.830;8.730;2022-08-21T00:30:15;4.62;;;2.25;;
27847;SDS011;15212;48.830;8.730;2022-08-21T00:32:44;8.50;;;3.12;;
27847;SDS011;15212;48.830;8.730;2022-08-21T00:35:14;9.50;;;2.60;;
27847;SDS011;15212;48.830;8.730;2022-08-21T00:37:45;5.72;;;2.50;;
27847;SDS011;15212;48.830;8.730;2022-08-21T00:40:15;8.50;;;2.70;;
27847;SDS011;15212;48.830;8.730;2022-08-21T00:42:46;9.40;;;2.95;;
27847;SDS011;15212;48.830;8.730;2022-08-21T00:45:15;9.38;;;2.45;;
27847;SDS011;15212;48.830;8.730;2022-08-21T00:47:44;8.13;;;2.65;;
27847;SDS011;15212;48.830;8.730;2022-08-21T00:50:12;5.58;;;2.25;;
27847;SDS011;15212;48.830;8.730;2022-08-21T00:52:41;7.30;;;2.90;;
27847;SDS011;15212;48.830;8.730;2022-08-21T00:55:10;11.33;;;3.33;;
27847;SDS011;15212;48.830;8.730;2022-08-21T00:57:44;7.28;;;2.50;;
27847;SDS011;15212;48.830;8.730;2022-08-21T01:00:17;6.95;;;2.87;;
27847;SDS011;15212;48.830;8.730;2022-08-21T01:02:53;5.90;;;2.12;;
27847;SDS011;15212;48.830;8.730;2022-08-21T01:05:22;9.75;;;2.62;;
27847;SDS011;15212;48.830;8.730;2022-08-21T01:07:51;5.87;;;2.22;;
27847;SDS011;15212;48.830;8.730;2022-08-21T01:10:22;7.22;;;2.98;;
27847;SDS011;15212;48.830;8.730;2022-08-21T01:12:52;6.65;;;2.70;;
27847;SDS011;15212;48.830;8.730;2022-08-21T01:15:26;7.67;;;2.77;;
27847;SDS011;15212;48.830;8.730;2022-08-21T01:18:07;9.65;;;2.37;;
27847;SDS011;15212;48.830;8.730;2022-08-21T01:20:34;8.18;;;2.75;;
27847;SDS011;15212;48.830;8.730;2022-08-21T01:23:04;7.53;;;2.75;;
27847;SDS011;15212;48.830;8.730;2022-08-21T01:25:33;7.00;;;2.55;;
27847;SDS011;15212;48.830;8.730;2022-08-21T01:28:04;6.05;;;2.37;;
27847;SDS011;15212;48.830;8.730;2022-08-21T01:30:35;6.47;;;2.70;;
27847;SDS011;15212;48.830;8.730;2022-08-21T01:33:06;9.30;;;2.83;;
27847;SDS011;15212;48.830;8.730;2022-08-21T01:35:34;7.87;;;3.05;;
27847;SDS011;15212;48.830;8.730;2022-08-21T01:38:03;9.20;;;3.00;;
27847;SDS011;15212;48.830;8.730;2022-08-21T01:40:32;8.43;;;2.98;;
27847;SDS011;15212;48.830;8.730;2022-08-21T01:43:00;10.70;;;3.05;;
27847;SDS011;15212;48.830;8.730;2022-08-21T01:45:29;6.28;;;3.05;;
27847;SDS011;15212;48.830;8.730;2022-08-21T01:47:57;6.30;;;2.67;;
27847;SDS011;15212;48.830;8.730;2022-08-21T01:50:26;8.40;;;2.87;;
27847;SDS011;15212;48.830;8.730;2022-08-21T01:52:54;6.97;;;2.92;;
27847;SDS011;15212;48.830;8.730;2022-08-21T01:55:22;8.63;;;3.37;;
27847;SDS011;15212;48.830;8.730;2022-08-21T01:57:51;7.90;;;3.05;;
27847;SDS011;15212;48.830;8.730;2022-08-21T02:00:20;7.58;;;3.00;;
27847;SDS011;15212;48.830;8.730;2022-08-21T02:02:49;9.50;;;2.67;;
27847;SDS011;15212;48.830;8.730;2022-08-21T02:05:18;6.00;;;2.70;;
27847;SDS011;15212;48.830;8.730;2022-08-21T02:07:49;8.23;;;3.00;;
27847;SDS011;15212;48.830;8.730;2022-08-21T02:10:23;7.87;;;3.10;;
27847;SDS011;15212;48.830;8.730;2022-08-21T02:12:55;17.07;;;2.95;;
27847;SDS011;15212;48.830;8.730;2022-08-21T02:15:25;5.80;;;2.80;;
27847;SDS011;15212;48.830;8.730;2022-08-21T02:17:56;8.23;;;2.75;;
27847;SDS011;15212;48.830;8.730;2022-08-21T02:20:28;12.23;;;3.08;;
27847;SDS011;15212;48.830;8.730;2022-08-21T02:23:00;7.78;;;3.20;;
27847;SDS011;15212;48.830;8.730;2022-08-21T02:25:30;6.65;;;2.95;;
27847;SDS011;15212;48.830;8.730;2022-08-21T02:28:01;7.70;;;3.22;;
27847;SDS011;15212;48.830;8.730;2022-08-21T02:30:41;9.65;;;3.08;;
27847;SDS011;15212;48.830;8.730;2022-08-21T02:33:14;9.28;;;3.27;;
27847;SDS011;15212;48.830;8.730;2022-08-21T02:35:43;8.03;;;3.02;;
27847;SDS011;15212;48.830;8.730;2022-08-21T02:38:14;8.08;;;3.08;;
27847;SDS011;15212;48.830;8.730;2022-08-21T02:40:47;6.30;;;2.90;;
27847;SDS011;15212;48.830;8.730;2022-08-21T02:43:18;10.53;;;3.42;;
27847;SDS011;15212;48.830;8.730;2022-08-21T02:45:49;8.63;;;3.50;;
27847;SDS011;15212;48.830;8.730;2022-08-21T02:48:24;11.40;;;3.33;;
27847;SDS011;15212;48.830;8.730;2022-08-21T02:51:13;7.30;;;3.08;;
27847;SDS011;15212;48.830;8.730;2022-08-21T02:53:31;11.68;;;3.40;;
27847;SDS011;15212;48.830;8.730;2022-08-21T02:56:01;7.00;;;3.15;;
27847;SDS011;15212;48.830;8.730;2022-08-21T02:58:34;7.70;;;3.33;;
27847;SDS011;15212;48.830;8.730;2022-08-21T03:01:07;8.85;;;3.37;;
27847;SDS011;15212;48.830;8.730;2022-08-21T03:03:38;10.90;;;3.58;;
27847;SDS011;15212;48.830;8.730;2022-08-21T03:06:11;9.68;;;3.77;;
27847;SDS011;15212;48.830;8.730;2022-08-21T03:08:41;10.88;;;3.62;;
27847;SDS011;15212;48.830;8.730;2022-08-21T03:11:11;9.55;;;3.17;;
27847;SDS011;15212;48.830;8.730;2022-08-21T03:13:41;10.58;;;3.72;;
27847;SDS011;15212;48.830;8.730;2022-08-21T03:16:10;7.58;;;3.10;;
27847;SDS011;15212;48.830;8.730;2022-08-21T03:18:38;9.73;;;3.00;;
27847;SDS011;15212;48.830;8.730;2022-08-21T03:21:07;8.75;;;3.50;;
27847;SDS011;15212;48.830;8.730;2022-08-21T03:23:35;10.48;;;3.92;;
27847;SDS011;15212;48.830;8.730;2022-08-21T03:26:06;8.03;;;3.72;;
27847;SDS011;15212;48.830;8.730;2022-08-21T03:28:36;12.70;;;3.85;;
27847;SDS011;15212;48.830;8.730;2022-08-21T03:31:05;7.42;;;3.40;;
27847;SDS011;15212;48.830;8.730;2022-08-21T03:33:34;8.08;;;3.85;;
27847;SDS011;15212;48.830;8.730;2022-08-21T03:36:04;9.88;;;3.70;;
27847;SDS011;15212;48.830;8.730;2022-08-21T03:38:34;5.70;;;3.33;;
27847;SDS011;15212;48.830;8.730;2022-08-21T03:41:04;14.05;;;3.62;;
27847;SDS011;15212;48.830;8.730;2022-08-21T03:43:34;10.48;;;4.10;;
27847;SDS011;15212;48.830;8.730;2022-08-21T03:46:04;7.70;;;3.50;;
27847;SDS011;15212;48.830;8.730;2022-08-21T03:48:34;8.10;;;3.67;;
27847;SDS011;15212;48.830;8.730;2022-08-21T03:51:04;11.50;;;3.85;;
27847;SDS011;15212;48.830;8.730;2022-08-21T03:53:33;8.15;;;3.40;;
27847;SDS011;15212;48.830;8.730;2022-08-21T03:56:03;9.78;;;3.85;;
27847;SDS011;15212;48.830;8.730;2022-08-21T03:58:32;7.37;;;3.37;;
27847;SDS011;15212;48.830;8.730;2022-08-21T04:01:02;9.25;;;4.05;;
27847;SDS011;15212;48.830;8.730;2022-08-21T04:03:32;11.93;;;3.70;;
27847;SDS011;15212;48.830;8.730;2022-08-21T04:06:03;7.00;;;3.85;;
27847;SDS011;15212;48.830;8.730;2022-08-21T04:08:33;8.63;;;4.12;;
27847;SDS011;15212;48.830;8.730;2022-08-21T04:11:02;12.18;;;4.03;;
27847;SDS011;15212;48.830;8.730;2022-08-21T04:13:31;13.38;;;3.90;;
27847;SDS011;15212;48.830;8.730;2022-08-21T04:16:00;8.98;;;4.05;;
27847;SDS011;15212;48.830;8.730;2022-08-21T04:18:28;9.73;;;3.60;;
27847;SDS011;15212;48.830;8.730;2022-08-21T04:20:57;9.93;;;4.10;;
27847;SDS011;15212;48.830;8.730;2022-08-21T04:23:27;13.18;;;4.53;;
27847;SDS011;15212;48.830;8.730;2022-08-21T04:25:56;12.13;;;4.50;;
27847;SDS011;15212;48.830;8.730;2022-08-21T04:28:26;9.70;;;4.33;;
27847;SDS011;15212;48.830;8.730;2022-08-21T04:30:55;7.58;;;4.28;;
27847;SDS011;15212;48.830;8.730;2022-08-21T04:33:24;9.30;;;4.30;;
27847;SDS011;15212;48.830;8.730;2022-08-21T04:35:53;14.53;;;4.58;;
27847;SDS011;15212;48.830;8.730;2022-08-21T04:38:21;6.92;;;3.62;;
27847;SDS011;15212;48.830;8.730;2022-08-21T04:40:50;12.90;;;4.35;;
27847;SDS011;15212;48.830;8.730;2022-08-21T04:43:19;8.15;;;3.90;;
27847;SDS011;15212;48.830;8.730;2022-08-21T04:45:49;10.40;;;4.33;;
27847;SDS011;15212;48.830;8.730;2022-08-21T04:48:20;9.93;;;4.28;;
27847;SDS011;15212;48.830;8.730;2022-08-21T04:51:03;14.85;;;4.67;;
27847;SDS011;15212;48.830;8.730;2022-08-21T04:56:14;10.93;;;4.20;;
27847;SDS011;15212;48.830;8.730;2022-08-21T05:01:21;9.40;;;4.28;;
27847;SDS011;15212;48.830;8.730;2022-08-21T05:03:51;10.50;;;4.70;;
27847;SDS011;15212;48.830;8.730;2022-08-21T05:06:22;12.35;;;4.20;;
27847;SDS011;15212;48.830;8.730;2022-08-21T05:08:52;11.10;;;4.70;;
27847;SDS011;15212;48.830;8.730;2022-08-21T05:11:22;8.55;;;4.12;;
27847;SDS011;15212;48.830;8.730;2022-08-21T05:13:51;9.80;;;4.20;;
27847;SDS011;15212;48.830;8.730;2022-08-21T05:16:19;16.65;;;4.25;;
27847;SDS011;15212;48.830;8.730;2022-08-21T05:18:48;9.20;;;3.77;;
27847;SDS011;15212;48.830;8.730;2022-08-21T05:21:17;10.78;;;3.83;;
27847;SDS011;15212;48.830;8.730;2022-08-21T05:23:46;8.00;;;3.30;;
27847;SDS011;15212;48.830;8.730;2022-08-21T05:26:15;7.72;;;3.30;;
27847;SDS011;15212;48.830;8.730;2022-08-21T05:28:43;11.22;;;3.87;;
27847;SDS011;15212;48.830;8.730;2022-08-21T05:31:11;8.23;;;3.40;;
27847;SDS011;15212;48.830;8.730;2022-08-21T05:33:40;10.58;;;3.45;;
27847;SDS011;15212;48.830;8.730;2022-08-21T05:36:08;10.70;;;3.80;;
27847;SDS011;15212;48.830;8.730;2022-08-21T05:38:36;8.90;;;3.52;;
27847;SDS011;15212;48.830;8.730;2022-08-21T05:41:05;11.43;;;3.55;;
27847;SDS011;15212;48.830;8.730;2022-08-21T05:43:33;5.67;;;3.17;;
27847;SDS011;15212;48.830;8.730;2022-08-21T05:46:02;7.37;;;3.20;;
27847;SDS011;15212;48.830;8.730;2022-08-21T05:48:33;7.08;;;3.42;;
27847;SDS011;15212;48.830;8.730;2022-08-21T05:51:10;9.43;;;3.25;;
27847;SDS011;15212;48.830;8.730;2022-08-21T05:53:41;6.22;;;2.90;;
27847;SDS011;15212;48.830;8.730;2022-08-21T05:56:10;13.60;;;3.58;;
27847;SDS011;15212;48.830;8.730;2022-08-21T05:58:40;8.33;;;3.30;;
27847;SDS011;15212;48.830;8.730;2022-08-21T06:01:09;11.38;;;5.97;;
27847;SDS011;15212;48.830;8.730;2022-08-21T06:03:39;10.82;;;3.52;;
27847;SDS011;15212;48.830;8.730;2022-08-21T06:06:08;12.30;;;6.58;;
27847;SDS011;15212;48.830;8.730;2022-08-21T06:08:37;8.60;;;4.08;;
27847;SDS011;15212;48.830;8.730;2022-08-21T06:11:06;11.83;;;3.62;;
27847;SDS011;15212;48.830;8.730;2022-08-21T06:13:36;9.58;;;3.55;;
27847;SDS011;15212;48.830;8.730;2022-08-21T06:16:06;10.32;;;3.52;;
27847;SDS011;15212;48.830;8.730;2022-08-21T06:18:41;9.68;;;3.45;;
27847;SDS011;15212;48.830;8.730;2022-08-21T06:21:12;8.75;;;3.40;;
27847;SDS011;15212;48.830;8.730;2022-08-21T06:23:41;9.65;;;3.67;;
27847;SDS011;15212;48.830;8.730;2022-08-21T06:26:10;6.62;;;3.20;;
27847;SDS011;15212;48.830;8.730;2022-08-21T06:28:40;9.55;;;3.22;;
27847;SDS011;15212;48.830;8.730;2022-08-21T06:31:14;10.13;;;3.05;;
27847;SDS011;15212;48.830;8.730;2022-08-21T06:33:48;6.58;;;2.65;;
27847;SDS011;15212;48.830;8.730;2022-08-21T06:36:18;7.92;;;2.80;;
27847;SDS011;15212;48.830;8.730;2022-08-21T06:38:49;9.10;;;3.15;;
27847;SDS011;15212;48.830;8.730;2022-08-21T06:41:18;8.55;;;2.90;;
27847;SDS011;15212;48.830;8.730;2022-08-21T06:43:47;6.70;;;2.67;;
27847;SDS011;15212;48.830;8.730;2022-08-21T06:46:16;9.65;;;3.55;;
27847;SDS011;15212;48.830;8.730;2022-08-21T06:48:44;11.35;;;3.55;;
27847;SDS011;15212;48.830;8.730;2022-08-21T06:51:13;9.53;;;3.33;;
27847;SDS011;15212;48.830;8.730;2022-08-21T06:53:42;10.05;;;3.37;;
27847;SDS011;15212;48.830;8.730;2022-08-21T06:56:11;8.60;;;3.27;;
27847;SDS011;15212;48.830;8.730;2022-08-21T06:58:39;8.18;;;3.00;;
27847;SDS011;15212;48.830;8.730;2022-08-21T07:01:08;8.65;;;3.05;;
27847;SDS011;15212;48.830;8.730;2022-08-21T07:03:38;11.00;;;3.50;;
27847;SDS011;15212;48.830;8.730;2022-08-21T07:06:09;9.70;;;3.37;;
27847;SDS011;15212;48.830;8.730;2022-08-21T07:08:38;7.55;;;3.37;;
27847;SDS011;15212;48.830;8.730;2022-08-21T07:11:09;9.55;;;3.67;;
27847;SDS011;15212;48.830;8.730;2022-08-21T07:13:43;8.05;;;3.25;;
27847;SDS011;15212;48.830;8.730;2022-08-21T07:16:11;8.88;;;3.42;;
27847;SDS011;15212;48.830;8.730;2022-08-21T07:18:40;7.78;;;3.25;;
27847;SDS011;15212;48.830;8.730;2022-08-21T07:21:08;8.90;;;3.33;;
27847;SDS011;15212;48.830;8.730;2022-08-21T07:23:38;8.15;;;3.02;;
27847;SDS011;15212;48.830;8.730;2022-08-21T07:26:10;9.53;;;3.08;;
27847;SDS011;15212;48.830;8.730;2022-08-21T07:28:39;7.20;;;3.17;;
27847;SDS011;15212;48.830;8.730;2022-08-21T07:31:08;11.75;;;3.50;;
27847;SDS011;15212;48.830;8.730;2022-08-21T07:33:40;8.55;;;3.50;;
27847;SDS011;15212;48.830;8.730;2022-08-21T07:36:09;9.15;;;3.67;;
27847;SDS011;15212;48.830;8.730;2022-08-21T07:38:37;12.30;;;3.75;;
27847;SDS011;15212;48.830;8.730;2022-08-21T07:41:07;9.00;;;3.90;;
27847;SDS011;15212;48.830;8.730;2022-08-21T07:43:48;9.75;;;3.90;;
27847;SDS011;15212;48.830;8.730;2022-08-21T07:46:17;13.48;;;3.83;;
27847;SDS011;15212;48.830;8.730;2022-08-21T07:48:45;12.55;;;3.10;;
27847;SDS011;15212;48.830;8.730;2022-08-21T07:51:15;10.82;;;3.42;;
27847;SDS011;15212;48.830;8.730;2022-08-21T07:53:49;8.70;;;3.27;;
27847;SDS011;15212;48.830;8.730;2022-08-21T07:56:20;7.72;;;3.20;;
27847;SDS011;15212;48.830;8.730;2022-08-21T07:58:49;8.58;;;3.70;;
27847;SDS011;15212;48.830;8.730;2022-08-21T08:01:17;7.97;;;3.22;;
27847;SDS011;15212;48.830;8.730;2022-08-21T08:03:47;12.33;;;3.58;;
27847;SDS011;15212;48.830;8.730;2022-08-21T08:06:15;9.25;;;3.30;;
27847;SDS011;15212;48.830;8.730;2022-08-21T08:08:45;7.75;;;3.08;;
27847;SDS011;15212;48.830;8.730;2022-08-21T08:11:14;10.65;;;3.30;;
27847;SDS011;15212;48.830;8.730;2022-08-21T08:13:43;6.15;;;2.92;;
27847;SDS011;15212;48.830;8.730;2022-08-21T08:16:15;7.62;;;2.98;;
27847;SDS011;15212;48.830;8.730;2022-08-21T08:18:44;14.65;;;3.75;;
27847;SDS011;15212;48.830;8.730;2022-08-21T08:21:13;8.93;;;3.52;;
27847;SDS011;15212;48.830;8.730;2022-08-21T08:23:41;9.78;;;3.10;;
27847;SDS011;15212;48.830;8.730;2022-08-21T08:26:10;9.00;;;3.20;;
27847;SDS011;15212;48.830;8.730;2022-08-21T08:28:39;8.83;;;3.27;;
27847;SDS011;15212;48.830;8.730;2022-08-21T08:31:07;8.95;;;3.10;;
27847;SDS011;15212;48.830;8.730;2022-08-21T08:33:36;9.08;;;3.30;;
27847;SDS011;15212;48.830;8.730;2022-08-21T08:36:05;12.15;;;3.75;;
27847;SDS011;15212;48.830;8.730;2022-08-21T08:38:43;9.15;;;3.20;;
27847;SDS011;15212;48.830;8.730;2022-08-21T08:41:14;8.35;;;3.37;;
27847;SDS011;15212;48.830;8.730;2022-08-21T08:43:49;8.95;;;3.15;;
27847;SDS011;15212;48.830;8.730;2022-08-21T08:46:19;7.92;;;3.10;;
27847;SDS011;15212;48.830;8.730;2022-08-21T08:49:02;9.25;;;3.25;;
27847;SDS011;15212;48.830;8.730;2022-08-21T08:51:46;8.33;;;3.25;;
27847;SDS011;15212;48.830;8.730;2022-08-21T08:54:25;8.13;;;3.20;;
27847;SDS011;15212;48.830;8.730;2022-08-21T08:57:00;10.23;;;3.42;;
27847;SDS011;15212;48.830;8.730;2022-08-21T08:59:41;8.03;;;3.37;;
27847;SDS011;15212;48.830;8.730;2022-08-21T09:02:11;9.25;;;3.52;;
27847;SDS011;15212;48.830;8.730;2022-08-21T09:04:40;15.88;;;3.27;;
27847;SDS011;15212;48.830;8.730;2022-08-21T09:10:18;10.95;;;3.60;;
27847;SDS011;15212;48.830;8.730;2022-08-21T09:12:52;8.40;;;3.00;;
27847;SDS011;15212;48.830;8.730;2022-08-21T09:15:39;8.83;;;3.10;;
27847;SDS011;15212;48.830;8.730;2022-08-21T09:18:54;8.65;;;3.40;;
27847;SDS011;15212;48.830;8.730;2022-08-21T09:21:35;14.83;;;6.42;;
27847;SDS011;15212;48.830;8.730;2022-08-21T09:27:18;11.57;;;3.87;;
27847;SDS011;15212;48.830;8.730;2022-08-21T09:29:49;10.60;;;3.77;;
27847;SDS011;15212;48.830;8.730;2022-08-21T09:32:21;11.12;;;3.80;;
27847;SDS011;15212;48.830;8.730;2022-08-21T09:35:05;10.20;;;3.50;;
27847;SDS011;15212;48.830;8.730;2022-08-21T09:37:34;6.20;;;3.00;;
27847;SDS011;15212;48.830;8.730;2022-08-21T09:40:25;12.33;;;3.55;;
27847;SDS011;15212;48.830;8.730;2022-08-21T09:45:44;7.20;;;3.45;;
27847;SDS011;15212;48.830;8.730;2022-08-21T09:48:17;8.80;;;3.45;;
27847;SDS011;15212;48.830;8.730;2022-08-21T09:50:49;8.45;;;3.50;;
27847;SDS011;15212;48.830;8.730;2022-08-21T09:55:57;6.85;;;3.42;;
27847;SDS011;15212;48.830;8.730;2022-08-21T09:58:48;7.80;;;3.42;;
27847;SDS011;15212;48.830;8.730;2022-08-21T10:01:23;10.90;;;3.58;;
27847;SDS011;15212;48.830;8.730;2022-08-21T10:04:04;11.80;;;3.40;;
27847;SDS011;15212;48.830;8.730;2022-08-21T10:06:34;9.90;;;3.20;;
27847;SDS011;15212;48.830;8.730;2022-08-21T10:09:05;11.33;;;3.70;;
27847;SDS011;15212;48.830;8.730;2022-08-21T10:11:49;9.08;;;3.22;;
27847;SDS011;15212;48.830;8.730;2022-08-21T10:17:17;8.45;;;3.17;;
27847;SDS011;15212;48.830;8.730;2022-08-21T10:20:05;6.95;;;3.20;;
27847;SDS011;15212;48.830;8.730;2022-08-21T10:26:05;7.15;;;3.25;;
27847;SDS011;15212;48.830;8.730;2022-08-21T10:34:35;6.17;;;3.27;;
27847;SDS011;15212;48.830;8.730;2022-08-21T10:37:25;9.10;;;3.12;;
27847;SDS011;15212;48.830;8.730;2022-08-21T10:40:00;11.80;;;2.95;;
27847;SDS011;15212;48.830;8.730;2022-08-21T10:45:42;16.27;;;3.87;;
27847;SDS011;15212;48.830;8.730;2022-08-21T10:48:24;8.13;;;3.55;;
27847;SDS011;15212;48.830;8.730;2022-08-21T10:51:16;10.03;;;3.65;;
27847;SDS011;15212;48.830;8.730;2022-08-21T10:54:11;7.25;;;3.27;;
27847;SDS011;15212;48.830;8.730;2022-08-21T10:56:41;9.53;;;3.30;;
27847;SDS011;15212;48.830;8.730;2022-08-21T11:02:09;7.10;;;3.02;;
27847;SDS011;15212;48.830;8.730;2022-08-21T11:07:36;5.03;;;2.87;;
27847;SDS011;15212;48.830;8.730;2022-08-21T11:10:16;8.15;;;3.52;;
27847;SDS011;15212;48.830;8.730;2022-08-21T11:12:54;6.60;;;2.90;;
27847;SDS011;15212;48.830;8.730;2022-08-21T11:15:45;7.20;;;2.83;;
27847;SDS011;15212;48.830;8.730;2022-08-21T11:18:36;8.48;;;3.20;;
27847;SDS011;15212;48.830;8.730;2022-08-21T11:21:18;14.25;;;3.65;;
27847;SDS011;15212;48.830;8.730;2022-08-21T11:24:00;7.33;;;3.00;;
27847;SDS011;15212;48.830;8.730;2022-08-21T11:26:50;10.10;;;2.92;;
27847;SDS011;15212;48.830;8.730;2022-08-21T11:29:43;9.43;;;3.33;;
27847;SDS011;15212;48.830;8.730;2022-08-21T11:32:13;10.98;;;3.25;;
27847;SDS011;15212;48.830;8.730;2022-08-21T11:47:05;10.00;;;3.60;;
27847;SDS011;15212;48.830;8.730;2022-08-21T11:49:43;6.20;;;2.80;;
27847;SDS011;15212;48.830;8.730;2022-08-21T11:52:35;6.95;;;3.27;;
27847;SDS011;15212;48.830;8.730;2022-08-21T11:55:08;8.30;;;3.05;;
27847;SDS011;15212;48.830;8.730;2022-08-21T12:00:59;8.28;;;3.20;;
27847;SDS011;15212;48.830;8.730;2022-08-21T12:03:34;9.30;;;3.00;;
27847;SDS011;15212;48.830;8.730;2022-08-21T12:06:10;7.40;;;2.87;;
27847;SDS011;15212;48.830;8.730;2022-08-21T12:08:42;6.85;;;2.92;;
27847;SDS011;15212;48.830;8.730;2022-08-21T12:14:12;7.37;;;3.12;;
27847;SDS011;15212;48.830;8.730;2022-08-21T12:16:37;7.87;;;2.80;;
27847;SDS011;15212;48.830;8.730;2022-08-21T12:19:10;8.15;;;2.90;;
27847;SDS011;15212;48.830;8.730;2022-08-21T12:21:48;9.60;;;3.42;;
27847;SDS011;15212;48.830;8.730;2022-08-21T12:30:00;8.43;;;2.90;;
27847;SDS011;15212;48.830;8.730;2022-08-21T12:32:43;5.37;;;2.90;;
27847;SDS011;15212;48.830;8.730;2022-08-21T12:35:17;10.43;;;3.58;;
27847;SDS011;15212;48.830;8.730;2022-08-21T12:38:07;6.10;;;2.98;;
27847;SDS011;15212;48.830;8.730;2022-08-21T12:41:01;6.75;;;3.17;;
27847;SDS011;15212;48.830;8.730;2022-08-21T12:43:46;6.80;;;3.00;;
27847;SDS011;15212;48.830;8.730;2022-08-21T12:46:19;6.70;;;3.08;;
27847;SDS011;15212;48.830;8.730;2022-08-21T12:49:07;6.47;;;3.08;;
27847;SDS011;15212;48.830;8.730;2022-08-21T12:51:46;6.37;;;2.70;;
27847;SDS011;15212;48.830;8.730;2022-08-21T12:54:37;7.00;;;3.10;;
27847;SDS011;15212;48.830;8.730;2022-08-21T12:57:03;6.45;;;2.80;;
27847;SDS011;15212;48.830;8.730;2022-08-21T12:59:37;5.80;;;2.87;;
27847;SDS011;15212;48.830;8.730;2022-08-21T13:02:13;5.58;;;3.20;;
27847;SDS011;15212;48.830;8.730;2022-08-21T13:04:48;6.67;;;2.80;;
27847;SDS011;15212;48.830;8.730;2022-08-21T13:07:24;6.72;;;2.70;;
27847;SDS011;15212;48.830;8.730;2022-08-21T13:10:00;8.75;;;2.80;;
27847;SDS011;15212;48.830;8.730;2022-08-21T13:15:04;8.05;;;2.60;;
27847;SDS011;15212;48.830;8.730;2022-08-21T13:17:34;5.62;;;2.60;;
27847;SDS011;15212;48.830;8.730;2022-08-21T13:20:27;6.15;;;3.08;;
27847;SDS011;15212;48.830;8.730;2022-08-21T13:22:51;7.12;;;3.10;;
27847;SDS011;15212;48.830;8.730;2022-08-21T13:25:20;6.17;;;2.98;;
27847;SDS011;15212;48.830;8.730;2022-08-21T13:27:59;7.05;;;2.83;;
27847;SDS011;15212;48.830;8.730;2022-08-21T13:30:45;6.15;;;2.95;;
27847;SDS011;15212;48.830;8.730;2022-08-21T13:33:13;4.55;;;2.70;;
27847;SDS011;15212;48.830;8.730;2022-08-21T13:35:49;5.33;;;3.27;;
27847;SDS011;15212;48.830;8.730;2022-08-21T13:38:25;6.85;;;3.17;;
27847;SDS011;15212;48.830;8.730;2022-08-21T13:46:31;10.68;;;3.12;;
27847;SDS011;15212;48.830;8.730;2022-08-21T13:49:03;8.10;;;3.10;;
27847;SDS011;15212;48.830;8.730;2022-08-21T13:51:33;8.20;;;3.30;;
27847;SDS011;15212;48.830;8.730;2022-08-21T13:54:14;5.28;;;2.58;;
27847;SDS011;15212;48.830;8.730;2022-08-21T13:56:54;7.70;;;2.98;;
27847;SDS011;15212;48.830;8.730;2022-08-21T13:59:28;5.90;;;2.83;;
27847;SDS011;15212;48.830;8.730;2022-08-21T14:02:08;8.33;;;3.15;;
27847;SDS011;15212;48.830;8.730;2022-08-21T14:04:59;8.03;;;3.20;;
27847;SDS011;15212;48.830;8.730;2022-08-21T14:07:30;13.13;;;2.62;;
27847;SDS011;15212;48.830;8.730;2022-08-21T14:10:03;6.35;;;2.60;;
27847;SDS011;15212;48.830;8.730;2022-08-21T14:12:41;8.88;;;2.62;;
27847;SDS011;15212;48.830;8.730;2022-08-21T14:15:25;7.47;;;2.60;;
27847;SDS011;15212;48.830;8.730;2022-08-21T14:17:54;7.87;;;2.85;;
27847;SDS011;15212;48.830;8.730;2022-08-21T14:20:41;9.78;;;2.98;;
27847;SDS011;15212;48.830;8.730;2022-08-21T14:23:09;6.80;;;2.70;;
27847;SDS011;15212;48.830;8.730;2022-08-21T14:25:40;7.25;;;2.85;;
27847;SDS011;15212;48.830;8.730;2022-08-21T14:28:23;8.00;;;3.30;;
27847;SDS011;15212;48.830;8.730;2022-08-21T14:31:11;7.37;;;3.00;;
27847;SDS011;15212;48.830;8.730;2022-08-21T14:33:46;6.25;;;3.02;;
27847;SDS011;15212;48.830;8.730;2022-08-21T14:36:15;6.80;;;2.58;;
27847;SDS011;15212;48.830;8.730;2022-08-21T14:38:43;6.62;;;2.72;;
27847;SDS011;15212;48.830;8.730;2022-08-21T14:41:19;6.55;;;2.67;;
27847;SDS011;15212;48.830;8.730;2022-08-21T14:43:53;8.90;;;3.33;;
27847;SDS011;15212;48.830;8.730;2022-08-21T14:46:23;6.33;;;2.80;;
27847;SDS011;15212;48.830;8.730;2022-08-21T14:48:55;9.95;;;2.98;;
27847;SDS011;15212;48.830;8.730;2022-08-21T14:51:23;6.53;;;2.77;;
27847;SDS011;15212;48.830;8.730;2022-08-21T14:53:52;6.83;;;2.72;;
27847;SDS011;15212;48.830;8.730;2022-08-21T14:56:20;9.15;;;3.02;;
27847;SDS011;15212;48.830;8.730;2022-08-21T14:58:51;7.25;;;2.80;;
27847;SDS011;15212;48.830;8.730;2022-08-21T15:01:21;7.67;;;2.77;;
27847;SDS011;15212;48.830;8.730;2022-08-21T15:03:50;7.47;;;3.05;;
27847;SDS011;15212;48.830;8.730;2022-08-21T15:06:18;7.37;;;3.08;;
27847;SDS011;15212;48.830;8.730;2022-08-21T15:08:47;7.53;;;2.87;;
27847;SDS011;15212;48.830;8.730;2022-08-21T15:11:17;6.10;;;2.72;;
27847;SDS011;15212;48.830;8.730;2022-08-21T15:13:48;8.08;;;2.75;;
27847;SDS011;15212;48.830;8.730;2022-08-21T15:16:20;7.53;;;2.85;;
27847;SDS011;15212;48.830;8.730;2022-08-21T15:18:49;8.43;;;2.65;;
27847;SDS011;15212;48.830;8.730;2022-08-21T15:21:17;6.70;;;2.50;;
27847;SDS011;15212;48.830;8.730;2022-08-21T15:23:46;7.90;;;2.90;;
27847;SDS011;15212;48.830;8.730;2022-08-21T15:26:14;5.53;;;2.65;;
27847;SDS011;15212;48.830;8.730;2022-08-21T15:28:42;4.87;;;2.50;;
27847;SDS011;15212;48.830;8.730;2022-08-21T15:31:11;7.45;;;3.37;;
27847;SDS011;15212;48.830;8.730;2022-08-21T15:33:39;6.47;;;2.62;;
27847;SDS011;15212;48.830;8.730;2022-08-21T15:36:08;6.22;;;2.60;;
27847;SDS011;15212;48.830;8.730;2022-08-21T15:38:36;8.68;;;3.20;;
27847;SDS011;15212;48.830;8.730;2022-08-21T15:41:05;9.68;;;2.80;;
27847;SDS011;15212;48.830;8.730;2022-08-21T15:43:52;6.10;;;2.77;;
27847;SDS011;15212;48.830;8.730;2022-08-21T15:46:17;8.10;;;2.72;;
27847;SDS011;15212;48.830;8.730;2022-08-21T15:48:47;5.95;;;2.70;;
27847;SDS011;15212;48.830;8.730;2022-08-21T15:51:16;13.25;;;2.77;;
27847;SDS011;15212;48.830;8.730;2022-08-21T15:53:45;6.08;;;2.60;;
27847;SDS011;15212;48.830;8.730;2022-08-21T15:56:21;6.45;;;2.83;;
27847;SDS011;15212;48.830;8.730;2022-08-21T15:58:54;5.17;;;2.45;;
27847;SDS011;15212;48.830;8.730;2022-08-21T16:01:28;5.62;;;2.60;;
27847;SDS011;15212;48.830;8.730;2022-08-21T16:03:56;5.37;;;2.40;;
27847;SDS011;15212;48.830;8.730;2022-08-21T16:06:25;7.15;;;2.67;;
27847;SDS011;15212;48.830;8.730;2022-08-21T16:08:53;6.72;;;2.70;;
27847;SDS011;15212;48.830;8.730;2022-08-21T16:11:22;6.78;;;2.60;;
27847;SDS011;15212;48.830;8.730;2022-08-21T16:13:50;6.40;;;2.40;;
27847;SDS011;15212;48.830;8.730;2022-08-21T16:16:19;8.80;;;2.87;;
27847;SDS011;15212;48.830;8.730;2022-08-21T16:18:50;4.78;;;2.50;;
27847;SDS011;15212;48.830;8.730;2022-08-21T16:21:19;4.45;;;2.02;;
27847;SDS011;15212;48.830;8.730;2022-08-21T16:23:47;6.05;;;2.92;;
27847;SDS011;15212;48.830;8.730;2022-08-21T16:26:16;8.13;;;2.77;;